AFR75MT LFMN-LFRS
Flight info
| Callsign | AFR75MT |
|---|---|
| Flight time | 1h 15m |
| Altitude | 40000 |
| Route | BODRU DCT KOTIT DCT ETREK DCT NOQAS DCT LERGA DCT LMG DCT MANAK |
| Aircraft | A343/H-SDE2E3FGHIJ4J5M1RWXY/LB1D1 |
Departure
| Time | 2026-05-05 15:40 |
|---|---|
| Airport | Nice-Côte d'Azur Airport (LFMN) |
Arrival
| Time | 2026-05-05 16:56 |
|---|---|
| Airport | Nantes Atlantique Airport (LFRS) |
| Time | Latitude | Longitude | Altitude | Speed | Heading |
|---|---|---|---|---|---|
| 2026-05-05 14:58 | 43.65866 | 7.20609 | 25 ft | 0 kts | 339° |
| 2026-05-05 15:25 | 43.65865 | 7.20609 | 25 ft | 1 kts | 339° |
| 2026-05-05 15:25 | 43.65844 | 7.20620 | 31 ft | 4 kts | 339° |
| 2026-05-05 15:26 | 43.65820 | 7.20633 | 31 ft | 2 kts | 339° |
| 2026-05-05 15:26 | 43.65800 | 7.20647 | 25 ft | 4 kts | 305° |
| 2026-05-05 15:26 | 43.65796 | 7.20676 | 31 ft | 4 kts | 242° |
| 2026-05-05 15:26 | 43.65812 | 7.20704 | 31 ft | 4 kts | 225° |
| 2026-05-05 15:27 | 43.65826 | 7.20724 | 31 ft | 0 kts | 225° |
| 2026-05-05 15:30 | 43.65822 | 7.20718 | 31 ft | 3 kts | 225° |
| 2026-05-05 15:30 | 43.65783 | 7.20664 | 29 ft | 12 kts | 224° |
| 2026-05-05 15:31 | 43.65732 | 7.20596 | 29 ft | 7 kts | 224° |
| 2026-05-05 15:31 | 43.65708 | 7.20576 | 30 ft | 3 kts | 188° |
| 2026-05-05 15:31 | 43.65684 | 7.20593 | 29 ft | 5 kts | 141° |
| 2026-05-05 15:31 | 43.65651 | 7.20638 | 29 ft | 9 kts | 135° |
| 2026-05-05 15:32 | 43.65589 | 7.20676 | 28 ft | 12 kts | 167° |
| 2026-05-05 15:32 | 43.65534 | 7.20689 | 28 ft | 0 kts | 170° |
| 2026-05-05 15:34 | 43.65520 | 7.20693 | 28 ft | 5 kts | 170° |
| 2026-05-05 15:34 | 43.65457 | 7.20708 | 25 ft | 13 kts | 170° |
| 2026-05-05 15:35 | 43.65353 | 7.20732 | 25 ft | 17 kts | 171° |
| 2026-05-05 15:35 | 43.65238 | 7.20696 | 26 ft | 18 kts | 221° |
| 2026-05-05 15:35 | 43.65141 | 7.20566 | 28 ft | 21 kts | 225° |
| 2026-05-05 15:35 | 43.65033 | 7.20416 | 31 ft | 21 kts | 225° |
| 2026-05-05 15:36 | 43.65011 | 7.20386 | 29 ft | 0 kts | 224° |
| 2026-05-05 15:37 | 43.65010 | 7.20384 | 26 ft | 2 kts | 224° |
| 2026-05-05 15:37 | 43.64973 | 7.20334 | 29 ft | 13 kts | 225° |
| 2026-05-05 15:38 | 43.64884 | 7.20212 | 28 ft | 19 kts | 225° |
| 2026-05-05 15:38 | 43.64807 | 7.20129 | 29 ft | 12 kts | 195° |
| 2026-05-05 15:38 | 43.64767 | 7.20147 | 28 ft | 3 kts | 143° |
| 2026-05-05 15:38 | 43.64746 | 7.20171 | 31 ft | 5 kts | 137° |
| 2026-05-05 15:39 | 43.64718 | 7.20209 | 27 ft | 6 kts | 135° |
| 2026-05-05 15:39 | 43.64695 | 7.20256 | 28 ft | 5 kts | 101° |
| 2026-05-05 15:39 | 43.64710 | 7.20300 | 28 ft | 6 kts | 53° |
| 2026-05-05 15:39 | 43.64762 | 7.20374 | 28 ft | 29 kts | 45° |
| 2026-05-05 15:40 | 43.65097 | 7.20831 | 26 ft | 104 kts | 45° |
| 2026-05-05 15:40 | 43.65763 | 7.21735 | 86 ft | 158 kts | 47° |
| 2026-05-05 15:40 | 43.66597 | 7.22774 | 780 ft | 163 kts | 41° |
| 2026-05-05 15:40 | 43.67103 | 7.24148 | 1422 ft | 174 kts | 93° |
| 2026-05-05 15:41 | 43.66544 | 7.25788 | 1833 ft | 209 kts | 131° |
| 2026-05-05 15:41 | 43.65364 | 7.27009 | 2642 ft | 215 kts | 150° |
| 2026-05-05 15:41 | 43.64134 | 7.28140 | 3665 ft | 212 kts | 144° |
| 2026-05-05 15:41 | 43.63020 | 7.29514 | 4593 ft | 217 kts | 138° |
| 2026-05-05 15:42 | 43.61806 | 7.30780 | 5402 ft | 220 kts | 155° |
| 2026-05-05 15:42 | 43.60347 | 7.31346 | 6254 ft | 219 kts | 181° |
| 2026-05-05 15:42 | 43.58878 | 7.30922 | 7129 ft | 216 kts | 208° |
| 2026-05-05 15:42 | 43.57574 | 7.29890 | 8011 ft | 217 kts | 214° |
| 2026-05-05 15:43 | 43.56313 | 7.28724 | 8844 ft | 219 kts | 219° |
| 2026-05-05 15:43 | 43.55289 | 7.27176 | 9677 ft | 221 kts | 241° |
| 2026-05-05 15:43 | 43.54867 | 7.25152 | 10493 ft | 223 kts | 266° |
| 2026-05-05 15:43 | 43.54969 | 7.22990 | 11050 ft | 239 kts | 276° |
| 2026-05-05 15:44 | 43.55531 | 7.20671 | 11407 ft | 266 kts | 293° |
| 2026-05-05 15:44 | 43.56555 | 7.18409 | 11747 ft | 290 kts | 302° |
| 2026-05-05 15:44 | 43.57874 | 7.16161 | 12148 ft | 312 kts | 307° |
| 2026-05-05 15:44 | 43.59381 | 7.13917 | 12699 ft | 324 kts | 309° |
| 2026-05-05 15:45 | 43.60969 | 7.11667 | 13377 ft | 331 kts | 309° |
| 2026-05-05 15:45 | 43.62591 | 7.09372 | 14069 ft | 336 kts | 309° |
| 2026-05-05 15:45 | 43.64202 | 7.07053 | 14714 ft | 341 kts | 308° |
| 2026-05-05 15:45 | 43.65860 | 7.04619 | 15383 ft | 346 kts | 308° |
| 2026-05-05 15:46 | 43.67483 | 7.02202 | 16048 ft | 349 kts | 307° |
| 2026-05-05 15:46 | 43.69160 | 6.99678 | 16751 ft | 353 kts | 307° |
| 2026-05-05 15:46 | 43.70822 | 6.97162 | 17462 ft | 357 kts | 306° |
| 2026-05-05 15:46 | 43.72508 | 6.94603 | 18132 ft | 361 kts | 306° |
| 2026-05-05 15:47 | 43.74186 | 6.92055 | 18759 ft | 365 kts | 306° |
| 2026-05-05 15:47 | 43.75342 | 6.90299 | 19218 ft | 367 kts | 306° |
| 2026-05-05 15:47 | 43.77627 | 6.86826 | 20123 ft | 369 kts | 306° |
| 2026-05-05 15:47 | 43.79361 | 6.84192 | 20824 ft | 371 kts | 306° |
| 2026-05-05 15:48 | 43.81101 | 6.81541 | 21501 ft | 374 kts | 305° |
| 2026-05-05 15:48 | 43.82858 | 6.78864 | 22190 ft | 376 kts | 305° |
| 2026-05-05 15:48 | 43.84627 | 6.76167 | 22858 ft | 380 kts | 305° |
| 2026-05-05 15:48 | 43.86410 | 6.73449 | 23497 ft | 382 kts | 305° |
| 2026-05-05 15:49 | 43.88203 | 6.70712 | 24027 ft | 386 kts | 304° |
| 2026-05-05 15:49 | 43.89944 | 6.67884 | 24554 ft | 384 kts | 299° |
| 2026-05-05 15:49 | 43.91516 | 6.64890 | 25080 ft | 384 kts | 297° |
| 2026-05-05 15:49 | 43.93047 | 6.61858 | 25597 ft | 385 kts | 296° |
| 2026-05-05 15:50 | 43.94564 | 6.58778 | 26110 ft | 388 kts | 296° |
| 2026-05-05 15:50 | 43.96076 | 6.55660 | 26641 ft | 390 kts | 295° |
| 2026-05-05 15:50 | 43.97584 | 6.52534 | 27200 ft | 391 kts | 295° |
| 2026-05-05 15:50 | 43.99099 | 6.49386 | 27771 ft | 392 kts | 295° |
| 2026-05-05 15:51 | 44.00616 | 6.46230 | 28277 ft | 395 kts | 295° |
| 2026-05-05 15:51 | 44.02147 | 6.43047 | 28750 ft | 399 kts | 295° |
| 2026-05-05 15:51 | 44.03697 | 6.39827 | 29220 ft | 402 kts | 295° |
| 2026-05-05 15:51 | 44.05261 | 6.36579 | 29638 ft | 407 kts | 295° |
| 2026-05-05 15:52 | 44.06850 | 6.33273 | 29815 ft | 415 kts | 295° |
| 2026-05-05 15:52 | 44.08460 | 6.29921 | 30215 ft | 418 kts | 295° |
| 2026-05-05 15:52 | 44.10080 | 6.26558 | 30622 ft | 420 kts | 295° |
| 2026-05-05 15:52 | 44.11709 | 6.23170 | 30985 ft | 422 kts | 295° |
| 2026-05-05 15:53 | 44.13346 | 6.19760 | 31385 ft | 425 kts | 294° |
| 2026-05-05 15:53 | 44.14993 | 6.16327 | 31854 ft | 426 kts | 294° |
| 2026-05-05 15:53 | 44.16631 | 6.12910 | 32419 ft | 424 kts | 294° |
| 2026-05-05 15:53 | 44.18261 | 6.09507 | 32948 ft | 422 kts | 294° |
| 2026-05-05 15:54 | 44.19887 | 6.06102 | 33416 ft | 423 kts | 294° |
| 2026-05-05 15:54 | 44.21513 | 6.02687 | 33853 ft | 423 kts | 294° |
| 2026-05-05 15:54 | 44.23137 | 5.99273 | 34289 ft | 422 kts | 294° |
| 2026-05-05 15:54 | 44.24758 | 5.95862 | 34712 ft | 422 kts | 294° |
| 2026-05-05 15:55 | 44.26378 | 5.92449 | 35084 ft | 422 kts | 295° |
| 2026-05-05 15:55 | 44.27996 | 5.89036 | 35460 ft | 422 kts | 295° |
| 2026-05-05 15:55 | 44.29615 | 5.85615 | 35800 ft | 423 kts | 295° |
| 2026-05-05 15:55 | 44.31235 | 5.82188 | 36140 ft | 423 kts | 295° |
| 2026-05-05 15:56 | 44.32858 | 5.78751 | 36467 ft | 424 kts | 295° |
| 2026-05-05 15:56 | 44.34479 | 5.75315 | 36788 ft | 424 kts | 296° |
| 2026-05-05 15:56 | 44.36106 | 5.71863 | 37120 ft | 425 kts | 296° |
| 2026-05-05 15:56 | 44.37735 | 5.68412 | 37364 ft | 427 kts | 297° |
| 2026-05-05 15:57 | 44.38826 | 5.66112 | 37503 ft | 430 kts | 297° |
| 2026-05-05 15:57 | 44.40470 | 5.62624 | 37796 ft | 430 kts | 297° |
| 2026-05-05 15:57 | 44.42112 | 5.59121 | 38133 ft | 430 kts | 297° |
| 2026-05-05 15:57 | 44.43750 | 5.55618 | 38440 ft | 431 kts | 297° |
| 2026-05-05 15:58 | 44.45390 | 5.52106 | 38690 ft | 431 kts | 297° |
| 2026-05-05 15:58 | 44.47028 | 5.48598 | 38941 ft | 430 kts | 297° |
| 2026-05-05 15:58 | 44.48664 | 5.45091 | 39199 ft | 431 kts | 297° |
| 2026-05-05 15:58 | 44.50305 | 5.41570 | 39418 ft | 432 kts | 297° |
| 2026-05-05 15:59 | 44.51949 | 5.38043 | 39664 ft | 433 kts | 297° |
| 2026-05-05 15:59 | 44.53596 | 5.34503 | 39856 ft | 434 kts | 297° |
| 2026-05-05 15:59 | 44.55249 | 5.30942 | 39893 ft | 436 kts | 298° |
| 2026-05-05 16:00 | 44.58552 | 5.23824 | 39889 ft | 435 kts | 298° |
| 2026-05-05 16:00 | 44.61846 | 5.16710 | 39891 ft | 435 kts | 298° |
| 2026-05-05 16:01 | 44.65134 | 5.09588 | 39896 ft | 434 kts | 298° |
| 2026-05-05 16:01 | 44.68414 | 5.02466 | 39897 ft | 434 kts | 298° |
| 2026-05-05 16:02 | 44.71690 | 4.95333 | 39908 ft | 434 kts | 298° |
| 2026-05-05 16:02 | 44.74964 | 4.88188 | 39904 ft | 435 kts | 298° |
| 2026-05-05 16:03 | 44.78237 | 4.81024 | 39903 ft | 435 kts | 298° |
| 2026-05-05 16:03 | 44.81506 | 4.73855 | 39901 ft | 435 kts | 298° |
| 2026-05-05 16:04 | 44.84767 | 4.66687 | 39883 ft | 435 kts | 298° |
| 2026-05-05 16:04 | 44.88004 | 4.59549 | 39882 ft | 435 kts | 298° |
| 2026-05-05 16:05 | 44.91260 | 4.52355 | 39887 ft | 435 kts | 298° |
| 2026-05-05 16:05 | 44.94513 | 4.45146 | 39888 ft | 436 kts | 298° |
| 2026-05-05 16:06 | 44.97767 | 4.37920 | 39883 ft | 436 kts | 298° |
| 2026-05-05 16:06 | 45.01014 | 4.30688 | 39890 ft | 436 kts | 298° |
| 2026-05-05 16:07 | 45.04260 | 4.23444 | 39878 ft | 436 kts | 298° |
| 2026-05-05 16:07 | 45.07499 | 4.16192 | 39883 ft | 436 kts | 298° |
| 2026-05-05 16:08 | 45.10743 | 4.08914 | 39879 ft | 438 kts | 298° |
| 2026-05-05 16:08 | 45.13980 | 4.01619 | 39887 ft | 438 kts | 297° |
| 2026-05-05 16:09 | 45.17222 | 3.94282 | 39882 ft | 440 kts | 298° |
| 2026-05-05 16:09 | 45.20479 | 3.86938 | 39878 ft | 440 kts | 298° |
| 2026-05-05 16:10 | 45.23731 | 3.79577 | 39885 ft | 441 kts | 298° |
| 2026-05-05 16:10 | 45.26383 | 3.71807 | 39881 ft | 436 kts | 286° |
| 2026-05-05 16:11 | 45.28279 | 3.63645 | 39881 ft | 435 kts | 284° |
| 2026-05-05 16:12 | 45.31786 | 3.47260 | 39881 ft | 435 kts | 283° |
| 2026-05-05 16:13 | 45.36199 | 3.26697 | 39878 ft | 436 kts | 283° |
| 2026-05-05 16:13 | 45.37963 | 3.18440 | 39876 ft | 436 kts | 283° |
| 2026-05-05 16:14 | 45.41473 | 3.01911 | 39884 ft | 437 kts | 283° |
| 2026-05-05 16:15 | 45.44959 | 2.85356 | 39884 ft | 437 kts | 283° |
| 2026-05-05 16:16 | 45.48425 | 2.68769 | 39898 ft | 437 kts | 283° |
| 2026-05-05 16:17 | 45.51012 | 2.56297 | 39907 ft | 438 kts | 283° |
| 2026-05-05 16:18 | 45.53573 | 2.43872 | 39905 ft | 437 kts | 283° |
| 2026-05-05 16:19 | 45.56132 | 2.31381 | 39908 ft | 438 kts | 283° |
| 2026-05-05 16:19 | 45.58683 | 2.18848 | 39906 ft | 439 kts | 283° |
| 2026-05-05 16:20 | 45.62067 | 2.02110 | 39911 ft | 439 kts | 283° |
| 2026-05-05 16:22 | 45.66265 | 1.81137 | 39916 ft | 440 kts | 283° |
| 2026-05-05 16:23 | 45.69606 | 1.64291 | 39912 ft | 440 kts | 283° |
| 2026-05-05 16:23 | 45.72092 | 1.51661 | 39915 ft | 440 kts | 283° |
| 2026-05-05 16:24 | 45.73745 | 1.43217 | 39914 ft | 441 kts | 283° |
| 2026-05-05 16:25 | 45.76214 | 1.30532 | 39910 ft | 441 kts | 283° |
| 2026-05-05 16:25 | 45.78674 | 1.17827 | 39913 ft | 442 kts | 283° |
| 2026-05-05 16:26 | 45.81937 | 1.00816 | 39910 ft | 444 kts | 283° |
| 2026-05-05 16:27 | 45.83728 | 0.92345 | 39908 ft | 444 kts | 284° |
| 2026-05-05 16:27 | 45.85532 | 0.83880 | 39902 ft | 444 kts | 284° |
| 2026-05-05 16:28 | 45.87306 | 0.75449 | 39903 ft | 444 kts | 284° |
| 2026-05-05 16:28 | 45.89092 | 0.66910 | 39766 ft | 444 kts | 284° |
| 2026-05-05 16:29 | 45.89963 | 0.62727 | 39552 ft | 443 kts | 284° |
| 2026-05-05 16:29 | 45.90843 | 0.58492 | 39327 ft | 443 kts | 284° |
| 2026-05-05 16:29 | 45.91722 | 0.54255 | 39109 ft | 443 kts | 284° |
| 2026-05-05 16:29 | 45.92598 | 0.50021 | 38904 ft | 440 kts | 284° |
| 2026-05-05 16:30 | 45.93462 | 0.45839 | 38621 ft | 435 kts | 284° |
| 2026-05-05 16:30 | 45.94318 | 0.41685 | 38187 ft | 431 kts | 284° |
| 2026-05-05 16:30 | 45.95163 | 0.37575 | 37781 ft | 428 kts | 284° |
| 2026-05-05 16:30 | 45.96001 | 0.33490 | 37381 ft | 424 kts | 284° |
| 2026-05-05 16:31 | 45.96831 | 0.29437 | 36998 ft | 421 kts | 284° |
| 2026-05-05 16:31 | 45.97653 | 0.25408 | 36607 ft | 419 kts | 283° |
| 2026-05-05 16:31 | 45.98470 | 0.21392 | 36216 ft | 419 kts | 284° |
| 2026-05-05 16:31 | 45.99290 | 0.17366 | 35825 ft | 421 kts | 283° |
| 2026-05-05 16:32 | 46.00112 | 0.13316 | 35419 ft | 422 kts | 283° |
| 2026-05-05 16:32 | 46.00940 | 0.09223 | 34996 ft | 434 kts | 284° |
| 2026-05-05 16:32 | 46.01796 | 0.04988 | 34830 ft | 444 kts | 283° |
| 2026-05-05 16:32 | 46.02652 | 0.00741 | 34269 ft | 443 kts | 283° |
| 2026-05-05 16:33 | 46.03516 | -0.03554 | 33321 ft | 451 kts | 284° |
| 2026-05-05 16:33 | 46.04386 | -0.07888 | 32153 ft | 462 kts | 285° |
| 2026-05-05 16:33 | 46.05281 | -0.12357 | 31236 ft | 466 kts | 285° |
| 2026-05-05 16:33 | 46.06191 | -0.16889 | 30609 ft | 463 kts | 286° |
| 2026-05-05 16:34 | 46.07080 | -0.21321 | 30052 ft | 458 kts | 286° |
| 2026-05-05 16:34 | 46.07947 | -0.25680 | 29219 ft | 458 kts | 286° |
| 2026-05-05 16:34 | 46.08820 | -0.30067 | 28541 ft | 454 kts | 287° |
| 2026-05-05 16:34 | 46.09692 | -0.34416 | 27874 ft | 450 kts | 286° |
| 2026-05-05 16:35 | 46.10552 | -0.38733 | 27182 ft | 447 kts | 286° |
| 2026-05-05 16:35 | 46.11412 | -0.43112 | 26352 ft | 448 kts | 286° |
| 2026-05-05 16:35 | 46.12246 | -0.47358 | 25682 ft | 446 kts | 286° |
| 2026-05-05 16:35 | 46.13086 | -0.51651 | 25031 ft | 443 kts | 285° |
| 2026-05-05 16:36 | 46.13916 | -0.55894 | 24485 ft | 437 kts | 285° |
| 2026-05-05 16:36 | 46.14734 | -0.60074 | 24040 ft | 429 kts | 285° |
| 2026-05-05 16:36 | 46.15522 | -0.64108 | 23900 ft | 408 kts | 285° |
| 2026-05-05 16:36 | 46.16280 | -0.68013 | 23608 ft | 402 kts | 285° |
| 2026-05-05 16:37 | 46.17032 | -0.71888 | 22476 ft | 400 kts | 285° |
| 2026-05-05 16:37 | 46.17777 | -0.75737 | 21479 ft | 393 kts | 285° |
| 2026-05-05 16:37 | 46.18502 | -0.79476 | 21062 ft | 384 kts | 285° |
| 2026-05-05 16:37 | 46.19215 | -0.83162 | 20598 ft | 379 kts | 285° |
| 2026-05-05 16:38 | 46.19938 | -0.86798 | 20092 ft | 376 kts | 287° |
| 2026-05-05 16:38 | 46.20890 | -0.90282 | 19639 ft | 371 kts | 296° |
| 2026-05-05 16:38 | 46.22208 | -0.93455 | 19151 ft | 368 kts | 306° |
| 2026-05-05 16:38 | 46.23871 | -0.96240 | 18657 ft | 365 kts | 315° |
| 2026-05-05 16:39 | 46.25807 | -0.98597 | 18186 ft | 363 kts | 322° |
| 2026-05-05 16:39 | 46.27845 | -1.00733 | 17625 ft | 361 kts | 324° |
| 2026-05-05 16:39 | 46.29911 | -1.02764 | 17164 ft | 356 kts | 326° |
| 2026-05-05 16:39 | 46.31961 | -1.04727 | 16738 ft | 351 kts | 326° |
| 2026-05-05 16:40 | 46.33989 | -1.06664 | 16277 ft | 348 kts | 326° |
| 2026-05-05 16:40 | 46.36000 | -1.08597 | 15779 ft | 346 kts | 326° |
| 2026-05-05 16:40 | 46.37987 | -1.10526 | 15303 ft | 344 kts | 326° |
| 2026-05-05 16:40 | 46.39962 | -1.12459 | 14813 ft | 342 kts | 325° |
| 2026-05-05 16:41 | 46.41928 | -1.14393 | 14310 ft | 340 kts | 325° |
| 2026-05-05 16:41 | 46.43878 | -1.16318 | 13860 ft | 339 kts | 325° |
| 2026-05-05 16:41 | 46.45818 | -1.18237 | 13349 ft | 336 kts | 324° |
| 2026-05-05 16:41 | 46.47742 | -1.20139 | 12868 ft | 333 kts | 324° |
| 2026-05-05 16:42 | 46.49641 | -1.22019 | 12400 ft | 329 kts | 324° |
| 2026-05-05 16:42 | 46.51523 | -1.23882 | 11933 ft | 326 kts | 325° |
| 2026-05-05 16:42 | 46.53388 | -1.25729 | 11471 ft | 322 kts | 324° |
| 2026-05-05 16:42 | 46.55232 | -1.27559 | 10996 ft | 320 kts | 324° |
| 2026-05-05 16:43 | 46.57059 | -1.29374 | 10533 ft | 317 kts | 323° |
| 2026-05-05 16:43 | 46.58865 | -1.31176 | 10216 ft | 310 kts | 323° |
| 2026-05-05 16:43 | 46.60614 | -1.32915 | 10069 ft | 298 kts | 324° |
| 2026-05-05 16:43 | 46.62296 | -1.34584 | 9956 ft | 288 kts | 324° |
| 2026-05-05 16:44 | 46.63921 | -1.36197 | 9798 ft | 278 kts | 324° |
| 2026-05-05 16:44 | 46.65512 | -1.37781 | 9455 ft | 277 kts | 323° |
| 2026-05-05 16:44 | 46.67093 | -1.39358 | 9086 ft | 275 kts | 323° |
| 2026-05-05 16:44 | 46.68139 | -1.40403 | 8845 ft | 275 kts | 323° |
| 2026-05-05 16:45 | 46.69707 | -1.41970 | 8535 ft | 272 kts | 323° |
| 2026-05-05 16:45 | 46.71180 | -1.43671 | 8163 ft | 270 kts | 316° |
| 2026-05-05 16:45 | 46.72545 | -1.45528 | 7826 ft | 267 kts | 314° |
| 2026-05-05 16:45 | 46.73859 | -1.47426 | 7483 ft | 264 kts | 313° |
| 2026-05-05 16:46 | 46.75137 | -1.49336 | 7146 ft | 262 kts | 313° |
| 2026-05-05 16:46 | 46.76393 | -1.51249 | 6809 ft | 260 kts | 312° |
| 2026-05-05 16:46 | 46.77630 | -1.53141 | 6484 ft | 257 kts | 312° |
| 2026-05-05 16:46 | 46.78859 | -1.55017 | 6202 ft | 252 kts | 312° |
| 2026-05-05 16:47 | 46.80039 | -1.56808 | 5972 ft | 236 kts | 313° |
| 2026-05-05 16:47 | 46.81155 | -1.58495 | 5564 ft | 226 kts | 312° |
| 2026-05-05 16:47 | 46.82234 | -1.60135 | 5284 ft | 225 kts | 312° |
| 2026-05-05 16:47 | 46.83317 | -1.61774 | 5035 ft | 224 kts | 313° |
| 2026-05-05 16:48 | 46.84399 | -1.63403 | 4806 ft | 222 kts | 314° |
| 2026-05-05 16:48 | 46.85467 | -1.65006 | 4565 ft | 219 kts | 314° |
| 2026-05-05 16:48 | 46.86525 | -1.66590 | 4270 ft | 218 kts | 314° |
| 2026-05-05 16:48 | 46.87578 | -1.68174 | 3982 ft | 217 kts | 314° |
| 2026-05-05 16:49 | 46.88627 | -1.69754 | 3750 ft | 214 kts | 314° |
| 2026-05-05 16:49 | 46.89645 | -1.71301 | 3561 ft | 208 kts | 314° |
| 2026-05-05 16:49 | 46.90635 | -1.72803 | 3173 ft | 204 kts | 315° |
| 2026-05-05 16:49 | 46.91629 | -1.74306 | 2997 ft | 207 kts | 314° |
| 2026-05-05 16:50 | 46.92734 | -1.75634 | 2994 ft | 206 kts | 329° |
| 2026-05-05 16:50 | 46.94096 | -1.76159 | 2996 ft | 207 kts | 359° |
| 2026-05-05 16:50 | 46.95526 | -1.75906 | 2993 ft | 208 kts | 11° |
| 2026-05-05 16:50 | 46.96860 | -1.75128 | 2996 ft | 211 kts | 24° |
| 2026-05-05 16:51 | 46.98155 | -1.74128 | 2993 ft | 210 kts | 25° |
| 2026-05-05 16:51 | 46.99445 | -1.73147 | 2992 ft | 209 kts | 24° |
| 2026-05-05 16:51 | 47.00708 | -1.72194 | 2990 ft | 197 kts | 24° |
| 2026-05-05 16:51 | 47.01885 | -1.71318 | 2915 ft | 183 kts | 23° |
| 2026-05-05 16:52 | 47.02990 | -1.70490 | 2633 ft | 175 kts | 24° |
| 2026-05-05 16:52 | 47.04051 | -1.69677 | 2374 ft | 169 kts | 24° |
| 2026-05-05 16:52 | 47.05071 | -1.68899 | 2141 ft | 162 kts | 24° |
| 2026-05-05 16:52 | 47.06037 | -1.68162 | 1871 ft | 151 kts | 24° |
| 2026-05-05 16:53 | 47.06929 | -1.67479 | 1664 ft | 139 kts | 23° |
| 2026-05-05 16:53 | 47.07745 | -1.66846 | 1483 ft | 128 kts | 22° |
| 2026-05-05 16:53 | 47.08524 | -1.66239 | 1323 ft | 126 kts | 22° |
| 2026-05-05 16:53 | 47.09304 | -1.65640 | 1162 ft | 126 kts | 23° |
| 2026-05-05 16:54 | 47.10089 | -1.65065 | 1030 ft | 126 kts | 22° |
| 2026-05-05 16:54 | 47.10866 | -1.64459 | 839 ft | 126 kts | 24° |
| 2026-05-05 16:54 | 47.11645 | -1.63858 | 663 ft | 126 kts | 22° |
| 2026-05-05 16:54 | 47.12431 | -1.63290 | 495 ft | 126 kts | 22° |
| 2026-05-05 16:55 | 47.13216 | -1.62690 | 329 ft | 126 kts | 25° |
| 2026-05-05 16:55 | 47.13983 | -1.62088 | 174 ft | 123 kts | 26° |
| 2026-05-05 16:55 | 47.14717 | -1.61521 | 98 ft | 106 kts | 27° |
| 2026-05-05 16:55 | 47.15213 | -1.61150 | 93 ft | 54 kts | 27° |
| 2026-05-05 16:56 | 47.15487 | -1.60942 | 96 ft | 35 kts | 27° |
| 2026-05-05 16:56 | 47.15615 | -1.60844 | 92 ft | 11 kts | 27° |
| 2026-05-05 16:56 | 47.15677 | -1.60792 | 93 ft | 10 kts | 41° |
| 2026-05-05 16:56 | 47.15675 | -1.60730 | 91 ft | 6 kts | 120° |
| 2026-05-05 16:57 | 47.15650 | -1.60672 | 93 ft | 7 kts | 124° |
| 2026-05-05 16:57 | 47.15622 | -1.60612 | 98 ft | 7 kts | 124° |
| 2026-05-05 16:57 | 47.15619 | -1.60573 | 97 ft | 3 kts | 56° |
| 2026-05-05 16:57 | 47.15652 | -1.60549 | 93 ft | 8 kts | 27° |
| 2026-05-05 16:58 | 47.15664 | -1.60540 | 96 ft | 0 kts | 27° |
| 2026-05-05 16:58 | 47.15666 | -1.60539 | 93 ft | 0 kts | 27° |
| 2026-05-05 16:59 | 47.15667 | -1.60538 | 93 ft | 1 kts | 27° |
| 2026-05-05 16:59 | 47.15691 | -1.60520 | 97 ft | 8 kts | 27° |
| 2026-05-05 16:59 | 47.15722 | -1.60465 | 98 ft | 4 kts | 60° |
| 2026-05-05 16:59 | 47.15730 | -1.60416 | 98 ft | 4 kts | 81° |
| 2026-05-05 17:00 | 47.15732 | -1.60380 | 95 ft | 3 kts | 88° |
| 2026-05-05 17:00 | 47.15732 | -1.60346 | 97 ft | 2 kts | 89° |
| 2026-05-05 17:00 | 47.15733 | -1.60333 | 96 ft | 0 kts | 89° |